Impacts METAR Board
IDs:

KSEA - Seattle-Tacoma Intl, WA, US

Updated at: 1600 UTC 20 Aug 2019
Potential Impact None Slight Moderate High
Time 20/04Z 20/05Z 20/06Z 20/07Z 20/08Z 20/09Z 20/10Z 20/11Z 20/12Z 20/13Z 20/14Z 20/15Z 20/16Z
Temp68 67 64 63 62 60 59 58 58 59 60 61 65
Dewpt52 52 52 52 52 51 50 50 50 52 53 53 54
Altim29.99 29.98 29.98 29.97 29.97 29.97 29.96 29.96 29.95 29.95 29.95 29.96 29.96
VIS10 10 10 10 10 10 10 10 10 10 10 10 10
CIG-- -- -- -- -- -- -- -- -- -- -- -- --
CoverSCTSCTSCTFEWFEWFEWCLRCLRCLRFEWFEWFEWSCT
FltCatVFRVFRVFRVFRVFRVFRVFRVFRVFRVFRVFRVFRVFR
WX--------------------------
WDir360103603603603503603501050000
WSpd7 7 6 8 5 5 5 4 4 6 3 0 0
WGst-- -- -- -- -- -- -- -- -- -- -- -- --
Raw hourly METARs
KSEA 200353Z 36007KT 10SM SCT250 20/11 A2999 RMK AO2 SLP159 T02000111
KSEA 200453Z 01007KT 10SM SCT250 19/11 A2998 RMK AO2 SLP155 T01940111
KSEA 200553Z 36006KT 10SM SCT250 18/11 A2998 RMK AO2 SLP156 T01780111 10239 20178 58001
KSEA 200653Z 36008KT 10SM FEW250 17/11 A2997 RMK AO2 SLP153 T01720111
KSEA 200753Z 36005KT 10SM FEW250 17/11 A2997 RMK AO2 SLP152 T01670111 402440156
KSEA 200853Z 35005KT 10SM FEW250 16/11 A2997 RMK AO2 SLP152 T01560106 56004
KSEA 200953Z 36005KT 10SM CLR 15/10 A2996 RMK AO2 SLP149 T01500100
KSEA 201053Z 35004KT 10SM CLR 14/10 A2996 RMK AO2 SLP148 T01440100
KSEA 201153Z 01004KT 10SM CLR 14/10 A2995 RMK AO2 SLP146 T01440100 10183 20133 56006
KSEA 201253Z 05006KT 10SM FEW250 15/11 A2995 RMK AO2 SLP145 T01500111
KSEA 201353Z VRB03KT 10SM FEW250 16/12 A2995 RMK AO2 SLP145 T01560117
KSEA 201453Z 00000KT 10SM FEW250 16/12 A2996 RMK AO2 SLP149 T01610117 53003
KSEA 201553Z 00000KT 10SM SCT250 18/12 A2996 RMK AO2 SLP151 T01830122



Page loaded:  16:25 UTC  |   09:25 AM Pacific  |   10:25 AM Mountain  |   11:25 AM Central  |   12:25 PM Eastern

 

ADVISORIES

FORECASTS

FORECASTS

OBSERVATIONS

USER TOOLS

ABOUT US